createdAt,value
2022-12-11T00:00:48.929Z,6.60
2022-12-11T00:03:19.111Z,7.55
2022-12-11T00:05:45.975Z,8.15
2022-12-11T00:08:12.847Z,8.63
2022-12-11T00:10:39.345Z,7.57
2022-12-11T00:13:05.784Z,5.38
2022-12-11T00:15:32.290Z,7.30
2022-12-11T00:17:58.733Z,6.20
2022-12-11T00:20:25.280Z,5.65
2022-12-11T00:22:51.748Z,7.35
2022-12-11T00:25:18.270Z,5.65
2022-12-11T00:27:46.324Z,6.43
2022-12-11T00:30:13.703Z,7.13
2022-12-11T00:32:40.217Z,7.63
2022-12-11T00:35:06.869Z,6.80
2022-12-11T00:37:33.332Z,6.55
2022-12-11T00:39:59.755Z,7.63
2022-12-11T00:42:26.173Z,7.35
2022-12-11T00:44:53.650Z,6.47
2022-12-11T00:47:20.149Z,6.85
2022-12-11T00:49:49.722Z,6.70
2022-12-11T00:52:17.839Z,5.70
2022-12-11T00:54:45.235Z,6.50
2022-12-11T00:57:11.731Z,5.90
2022-12-11T00:59:38.851Z,6.20
2022-12-11T01:02:05.655Z,5.75
2022-12-11T01:04:32.101Z,6.18
2022-12-11T01:06:58.882Z,5.50
2022-12-11T01:09:48.581Z,5.28
2022-12-11T01:12:15.412Z,5.10
2022-12-11T01:14:41.965Z,5.13
2022-12-11T01:17:08.911Z,5.18
2022-12-11T01:19:35.700Z,6.03
2022-12-11T01:22:02.353Z,5.22
2022-12-11T01:24:28.850Z,4.82
2022-12-11T01:26:55.282Z,6.00
2022-12-11T01:29:21.799Z,5.13
2022-12-11T01:31:48.243Z,5.43
2022-12-11T01:34:14.679Z,5.38
2022-12-11T01:36:41.093Z,5.40
2022-12-11T01:39:07.549Z,5.55
2022-12-11T01:41:33.973Z,5.60
2022-12-11T01:44:28.010Z,5.32
2022-12-11T01:46:54.530Z,5.20
2022-12-11T01:49:25.949Z,6.70
2022-12-11T01:51:58.156Z,7.00
2022-12-11T01:54:26.982Z,7.93
2022-12-11T01:56:58.385Z,7.85
2022-12-11T01:59:27.083Z,7.82
2022-12-11T02:02:07.694Z,7.43
2022-12-11T02:04:36.246Z,7.60
2022-12-11T02:07:03.745Z,8.07
2022-12-11T02:09:37.288Z,8.05
2022-12-11T02:12:31.214Z,10.25
2022-12-11T02:15:20.059Z,8.93
2022-12-11T02:18:11.223Z,7.50
2022-12-11T02:20:49.556Z,7.63
2022-12-11T02:23:43.711Z,7.13
2022-12-11T02:26:36.523Z,6.68
2022-12-11T02:29:08.609Z,7.45
2022-12-11T02:31:50.674Z,7.30
2022-12-11T02:34:30.701Z,8.32
2022-12-11T02:37:02.227Z,7.63
2022-12-11T02:39:30.234Z,8.15
2022-12-11T02:41:56.867Z,7.75
2022-12-11T02:44:28.065Z,8.13
2022-12-11T02:46:55.564Z,7.43
2022-12-11T02:49:24.214Z,7.13
2022-12-11T02:51:52.264Z,5.97
2022-12-11T02:54:25.413Z,6.45
2022-12-11T02:56:58.895Z,6.45
2022-12-11T02:59:41.176Z,7.15
2022-12-11T03:02:08.107Z,7.07
2022-12-11T03:04:36.392Z,6.82
2022-12-11T03:07:13.809Z,6.95
2022-12-11T03:09:44.829Z,6.60
2022-12-11T03:12:13.703Z,5.88
2022-12-11T03:14:42.023Z,6.05
2022-12-11T03:17:14.348Z,6.43
2022-12-11T03:19:48.298Z,6.30
2022-12-11T03:22:42.493Z,6.68
2022-12-11T03:25:16.609Z,6.28
2022-12-11T03:27:55.441Z,6.10
2022-12-11T03:30:23.802Z,6.18
2022-12-11T03:32:50.308Z,5.43
2022-12-11T03:35:25.485Z,6.47
2022-12-11T03:37:54.891Z,6.38
2022-12-11T03:40:23.749Z,6.55
2022-12-11T03:42:53.487Z,6.57
2022-12-11T03:45:22.582Z,7.35
2022-12-11T03:47:51.261Z,6.85
2022-12-11T03:50:20.355Z,6.50
2022-12-11T03:52:48.152Z,6.00
2022-12-11T03:55:16.755Z,7.05
2022-12-11T03:57:43.587Z,10.45
2022-12-11T04:00:14.686Z,8.15
2022-12-11T04:02:42.005Z,6.85
2022-12-11T04:05:10.214Z,6.20
2022-12-11T04:07:37.315Z,6.30
2022-12-11T04:10:05.473Z,5.63
2022-12-11T04:12:31.904Z,5.78
2022-12-11T04:15:04.107Z,6.45
2022-12-11T04:17:51.740Z,5.38
2022-12-11T04:20:37.032Z,5.55
2022-12-11T04:23:24.225Z,4.80
2022-12-11T04:25:51.159Z,5.57
2022-12-11T04:28:17.614Z,5.10
2022-12-11T04:30:51.467Z,5.32
2022-12-11T04:33:17.919Z,5.57
2022-12-11T04:35:44.564Z,5.13
2022-12-11T04:38:10.977Z,6.25
2022-12-11T04:40:37.387Z,5.85
2022-12-11T04:43:03.855Z,6.28
2022-12-11T04:45:30.277Z,5.45
2022-12-11T04:47:56.792Z,5.80
2022-12-11T04:50:23.267Z,6.07
2022-12-11T04:52:49.680Z,5.88
2022-12-11T04:55:16.155Z,6.95
2022-12-11T04:57:42.619Z,6.32
2022-12-11T05:00:11.369Z,6.60
2022-12-11T05:02:39.740Z,6.22
2022-12-11T05:05:09.929Z,5.05
2022-12-11T05:07:37.762Z,6.05
2022-12-11T05:10:05.160Z,5.78
2022-12-11T05:12:32.521Z,5.75
2022-12-11T05:14:59.040Z,6.43
2022-12-11T05:17:25.545Z,6.35
2022-12-11T05:19:52.236Z,5.18
2022-12-11T05:22:19.087Z,5.60
2022-12-11T05:24:45.804Z,6.93
2022-12-11T05:27:12.327Z,7.03
2022-12-11T05:29:38.829Z,6.60
2022-12-11T05:32:05.514Z,7.97
2022-12-11T05:34:32.851Z,6.05
2022-12-11T05:36:59.487Z,6.22
2022-12-11T05:39:25.933Z,6.93
2022-12-11T05:41:52.352Z,7.70
2022-12-11T05:44:18.780Z,7.82
2022-12-11T05:46:45.264Z,7.05
2022-12-11T05:49:11.906Z,6.57
2022-12-11T05:51:39.578Z,7.43
2022-12-11T05:54:06.179Z,7.45
2022-12-11T05:56:34.920Z,7.28
2022-12-11T05:59:02.913Z,6.40
2022-12-11T06:01:32.264Z,6.43
2022-12-11T06:03:59.116Z,7.07
2022-12-11T06:06:26.651Z,7.32
2022-12-11T06:08:54.833Z,7.03
2022-12-11T06:11:24.311Z,6.10
2022-12-11T06:13:52.028Z,6.50
2022-12-11T06:16:19.923Z,6.60
2022-12-11T06:18:46.532Z,7.53
2022-12-11T06:21:20.493Z,6.68
2022-12-11T06:23:48.712Z,6.18
2022-12-11T06:26:16.577Z,6.53
2022-12-11T06:28:43.257Z,7.10
2022-12-11T06:31:09.905Z,8.45
2022-12-11T06:33:36.449Z,8.02
2022-12-11T06:36:08.781Z,9.20
2022-12-11T06:38:35.684Z,8.30
2022-12-11T06:41:04.825Z,7.38
2022-12-11T06:43:35.911Z,6.70
2022-12-11T06:46:06.696Z,7.10
2022-12-11T06:48:33.901Z,7.30
2022-12-11T06:51:00.336Z,7.43
2022-12-11T06:53:26.772Z,7.85
2022-12-11T06:55:53.176Z,7.63
2022-12-11T06:58:19.647Z,8.45
2022-12-11T07:00:46.116Z,7.70
2022-12-11T07:03:13.695Z,7.90
2022-12-11T07:05:40.156Z,6.35
2022-12-11T07:08:07.379Z,6.85
2022-12-11T07:10:34.122Z,6.60
2022-12-11T07:13:00.544Z,7.43
2022-12-11T07:15:26.987Z,7.35
2022-12-11T07:17:53.600Z,8.32
2022-12-11T07:20:20.036Z,10.50
2022-12-11T07:22:46.996Z,13.05
2022-12-11T07:25:14.287Z,17.60
2022-12-11T07:27:41.593Z,18.98
2022-12-11T07:30:09.114Z,16.02
2022-12-11T07:32:35.623Z,15.02
2022-12-11T07:35:02.184Z,12.05
2022-12-11T07:37:28.578Z,12.63
2022-12-11T07:39:55.024Z,7.32
2022-12-11T07:42:21.480Z,9.43
2022-12-11T07:44:48.153Z,12.30
2022-12-11T07:47:15.067Z,9.73
2022-12-11T07:49:41.592Z,18.67
2022-12-11T07:52:08.048Z,16.58
2022-12-11T07:54:34.479Z,11.85
2022-12-11T07:57:01.585Z,9.30
2022-12-11T07:59:28.013Z,11.40
2022-12-11T08:01:54.557Z,13.68
2022-12-11T08:04:21.041Z,10.52
2022-12-11T08:06:47.745Z,10.88
2022-12-11T08:09:21.107Z,10.65
2022-12-11T08:11:51.851Z,11.02
2022-12-11T08:14:19.414Z,11.52
2022-12-11T08:16:46.038Z,11.40
2022-12-11T08:19:13.168Z,10.60
2022-12-11T08:21:40.341Z,12.13
2022-12-11T08:24:07.809Z,12.70
2022-12-11T08:26:34.272Z,18.42
2022-12-11T08:29:02.305Z,19.70
2022-12-11T08:31:29.263Z,14.68
2022-12-11T08:33:56.891Z,19.38
2022-12-11T08:36:24.033Z,17.10
2022-12-11T08:38:51.104Z,14.63
2022-12-11T08:41:24.125Z,16.02
2022-12-11T08:43:54.780Z,16.73
2022-12-11T08:46:23.812Z,15.32
2022-12-11T08:48:50.932Z,16.60
2022-12-11T08:51:22.879Z,15.93
2022-12-11T08:53:50.179Z,14.05
2022-12-11T08:56:19.157Z,13.10
2022-12-11T08:58:46.387Z,13.68
2022-12-11T09:01:15.501Z,11.77
2022-12-11T09:03:42.342Z,16.30
2022-12-11T09:06:15.243Z,44.13
2022-12-11T09:08:47.198Z,32.15
2022-12-11T09:11:22.715Z,40.63
2022-12-11T09:13:49.501Z,18.20
2022-12-11T09:16:18.643Z,13.93
2022-12-11T09:18:50.266Z,10.93
2022-12-11T09:21:19.894Z,9.27
2022-12-11T09:23:46.826Z,10.35
2022-12-11T09:26:16.621Z,14.45
2022-12-11T09:28:46.553Z,21.05
2022-12-11T09:31:16.291Z,15.90
2022-12-11T09:33:43.138Z,12.20
2022-12-11T09:36:10.577Z,10.77
2022-12-11T09:38:37.477Z,10.68
2022-12-11T09:41:21.923Z,15.48
2022-12-11T09:44:19.037Z,16.35
2022-12-11T09:46:47.298Z,13.85
2022-12-11T09:49:22.989Z,11.38
2022-12-11T09:52:19.394Z,10.88
2022-12-11T09:54:55.896Z,11.52
2022-12-11T10:00:05.883Z,9.40
2022-12-11T10:03:09.638Z,10.60
2022-12-11T10:06:04.474Z,8.60
2022-12-11T10:09:07.634Z,9.48
2022-12-11T10:11:39.972Z,8.93
2022-12-11T10:14:24.742Z,8.95
2022-12-11T10:16:57.569Z,8.43
2022-12-11T10:19:30.533Z,8.48
2022-12-11T10:21:58.520Z,10.40
2022-12-11T10:25:10.066Z,9.73
2022-12-11T10:27:34.633Z,10.05
2022-12-11T10:30:21.351Z,8.10
2022-12-11T10:33:06.492Z,8.15
2022-12-11T10:35:41.942Z,8.93
2022-12-11T10:38:18.411Z,6.93
2022-12-11T10:43:12.771Z,7.28
2022-12-11T10:45:39.324Z,5.35
2022-12-11T10:48:10.507Z,4.85
2022-12-11T10:50:37.835Z,3.80
2022-12-11T10:53:05.469Z,4.00
2022-12-11T10:55:44.382Z,3.70
2022-12-11T10:58:24.078Z,3.95
2022-12-11T11:01:14.663Z,2.97
2022-12-11T11:03:55.092Z,2.60
2022-12-11T11:06:23.908Z,2.33
2022-12-11T11:08:56.232Z,2.58
2022-12-11T11:11:29.881Z,2.70
2022-12-11T11:14:15.502Z,2.80
2022-12-11T11:16:45.393Z,3.50
2022-12-11T11:19:21.884Z,3.03
2022-12-11T11:21:52.093Z,2.83
2022-12-11T11:24:26.780Z,2.50
2022-12-11T11:27:12.777Z,2.45
2022-12-11T11:29:41.993Z,1.90
2022-12-11T11:32:20.190Z,1.70
2022-12-11T11:34:46.671Z,1.88
2022-12-11T11:37:32.200Z,2.10
2022-12-11T11:40:08.238Z,1.90
2022-12-11T11:43:18.980Z,2.20
2022-12-11T11:45:45.431Z,2.08
2022-12-11T11:48:48.339Z,2.05
2022-12-11T11:51:30.348Z,2.30
2022-12-11T11:54:01.474Z,1.90
2022-12-11T11:56:34.973Z,1.90
2022-12-11T11:59:10.381Z,2.10
2022-12-11T12:01:37.535Z,1.80
2022-12-11T12:04:05.009Z,2.72
2022-12-11T12:06:47.407Z,2.03
2022-12-11T12:09:30.516Z,2.17
2022-12-11T12:12:25.675Z,2.08
2022-12-11T12:14:55.004Z,2.20
2022-12-11T12:17:36.000Z,2.70
2022-12-11T12:20:17.705Z,2.67
2022-12-11T12:22:56.509Z,4.43
2022-12-11T12:25:51.286Z,5.50
2022-12-11T12:29:06.186Z,3.97
2022-12-11T12:31:35.725Z,5.35
2022-12-11T12:34:38.779Z,4.90
2022-12-11T12:37:05.160Z,3.60
2022-12-11T12:39:47.337Z,5.40
2022-12-11T12:42:26.920Z,3.75
2022-12-11T12:45:26.372Z,4.32
2022-12-11T12:47:53.640Z,2.80
2022-12-11T12:50:23.116Z,3.00
2022-12-11T12:52:51.767Z,2.35
2022-12-11T12:55:24.692Z,2.55
2022-12-11T12:58:07.330Z,2.60
2022-12-11T13:00:38.697Z,2.83
2022-12-11T13:03:32.923Z,2.50
2022-12-11T13:06:02.574Z,2.40
2022-12-11T13:08:37.810Z,2.20
2022-12-11T13:11:08.264Z,2.92
2022-12-11T13:13:41.708Z,2.40
2022-12-11T13:16:16.997Z,2.40
2022-12-11T13:18:47.365Z,2.58
2022-12-11T13:21:34.089Z,4.78
2022-12-11T13:24:26.024Z,2.03
2022-12-11T13:26:52.436Z,2.67
2022-12-11T13:29:37.764Z,3.53
2022-12-11T13:32:11.291Z,3.15
2022-12-11T13:34:40.948Z,3.75
2022-12-11T13:37:24.440Z,2.83
2022-12-11T13:39:51.771Z,2.40
2022-12-11T13:42:33.277Z,2.95
2022-12-11T13:45:01.036Z,2.78
2022-12-11T13:47:29.001Z,2.38
2022-12-11T13:50:02.026Z,2.13
2022-12-11T13:52:28.726Z,1.60
2022-12-11T13:54:56.309Z,1.77
2022-12-11T13:57:30.309Z,1.85
2022-12-11T13:59:58.113Z,1.90
2022-12-11T14:02:32.489Z,2.50
2022-12-11T14:05:08.275Z,3.22
2022-12-11T14:07:40.517Z,3.22
2022-12-11T14:10:19.509Z,3.60
2022-12-11T14:13:01.879Z,4.18
2022-12-11T14:15:29.925Z,2.47
2022-12-11T14:17:58.088Z,6.00
2022-12-11T14:20:33.721Z,1.95
2022-12-11T14:23:20.522Z,1.73
2022-12-11T14:25:55.611Z,2.40
2022-12-11T14:28:27.314Z,2.72
2022-12-11T14:30:59.587Z,2.63
2022-12-11T14:33:32.344Z,2.10
2022-12-11T14:35:59.155Z,1.95
2022-12-11T14:38:26.010Z,2.15
2022-12-11T14:40:58.910Z,1.63
2022-12-11T14:43:40.135Z,2.15
2022-12-11T14:46:17.351Z,2.25
2022-12-11T14:48:57.503Z,2.80
2022-12-11T14:51:31.273Z,2.58
2022-12-11T14:53:58.179Z,2.25
2022-12-11T14:56:27.367Z,2.30
2022-12-11T14:59:06.313Z,2.25
2022-12-11T15:01:35.222Z,1.77
2022-12-11T15:04:21.981Z,2.70
2022-12-11T15:06:50.331Z,1.90
2022-12-11T15:09:29.932Z,2.40
2022-12-11T15:12:06.965Z,2.53
2022-12-11T15:14:33.803Z,2.28
2022-12-11T15:17:00.456Z,2.45
2022-12-11T15:19:31.462Z,2.08
2022-12-11T15:22:05.894Z,2.08
2022-12-11T15:24:39.966Z,2.65
2022-12-11T15:27:13.837Z,7.10
2022-12-11T15:29:40.360Z,8.07
2022-12-11T15:32:09.477Z,10.55
2022-12-11T15:34:42.111Z,11.52
2022-12-11T15:37:22.466Z,8.73
2022-12-11T15:39:49.147Z,7.35
2022-12-11T15:42:23.044Z,6.38
2022-12-11T15:44:49.599Z,5.10
2022-12-11T15:47:21.285Z,4.50
2022-12-11T15:49:47.707Z,5.68
2022-12-11T15:52:14.120Z,5.68
2022-12-11T15:54:40.536Z,4.90
2022-12-11T15:57:16.561Z,4.57
2022-12-11T15:59:44.187Z,4.07
2022-12-11T16:02:13.848Z,5.20
2022-12-11T16:04:41.067Z,4.78
2022-12-11T16:07:23.598Z,4.40
2022-12-11T16:09:50.440Z,4.13
2022-12-11T16:12:17.008Z,4.45
2022-12-11T16:14:45.156Z,4.38
2022-12-11T16:17:13.607Z,4.07
2022-12-11T16:19:42.006Z,5.72
2022-12-11T16:22:09.084Z,8.70
2022-12-11T16:24:36.053Z,10.07
2022-12-11T16:27:03.748Z,10.02
2022-12-11T16:29:34.342Z,11.48
2022-12-11T16:32:00.932Z,11.55
2022-12-11T16:34:28.120Z,11.25
2022-12-11T16:36:57.984Z,7.53
2022-12-11T16:39:24.592Z,5.75
2022-12-11T16:41:51.162Z,4.85
2022-12-11T16:44:23.068Z,4.93
2022-12-11T16:46:49.654Z,4.70
2022-12-11T16:49:18.543Z,5.40
2022-12-11T16:51:45.314Z,7.00
2022-12-11T16:54:12.243Z,6.28
2022-12-11T16:56:39.185Z,6.00
2022-12-11T16:59:06.218Z,13.30
2022-12-11T17:01:33.427Z,15.48
2022-12-11T17:04:00.235Z,15.93
2022-12-11T17:06:26.886Z,12.65
2022-12-11T17:08:53.686Z,10.02
2022-12-11T17:11:23.322Z,12.95
2022-12-11T17:13:57.841Z,6.75
2022-12-11T17:16:26.476Z,11.05
2022-12-11T17:18:53.587Z,16.48
2022-12-11T17:21:21.237Z,10.77
2022-12-11T17:23:48.748Z,9.13
2022-12-11T17:26:16.564Z,7.97
2022-12-11T17:28:43.698Z,6.13
2022-12-11T17:31:16.099Z,5.43
2022-12-11T17:33:44.117Z,5.45
2022-12-11T17:36:13.651Z,6.20
2022-12-11T17:38:40.506Z,5.40
2022-12-11T17:41:08.963Z,5.93
2022-12-11T17:43:36.036Z,6.10
2022-12-11T17:46:03.177Z,6.30
2022-12-11T17:48:29.900Z,5.60
2022-12-11T17:50:56.667Z,7.05
2022-12-11T17:53:23.404Z,5.95
2022-12-11T17:55:51.848Z,8.57
2022-12-11T17:58:22.198Z,6.47
2022-12-11T18:00:52.149Z,5.78
2022-12-11T18:03:19.103Z,5.32
2022-12-11T18:05:51.572Z,5.38
2022-12-11T18:08:21.718Z,5.50
2022-12-11T18:10:48.518Z,4.95
2022-12-11T18:13:17.945Z,5.20
2022-12-11T18:15:44.606Z,7.03
2022-12-11T18:18:11.295Z,6.72
2022-12-11T18:20:38.996Z,8.70
2022-12-11T18:23:05.643Z,9.13
2022-12-11T18:25:32.924Z,6.50
2022-12-11T18:28:00.129Z,6.93
2022-12-11T18:30:26.757Z,7.07
2022-12-11T18:32:53.478Z,6.25
2022-12-11T18:35:20.428Z,6.07
2022-12-11T18:37:47.263Z,5.22
2022-12-11T18:40:14.006Z,5.22
2022-12-11T18:42:40.571Z,5.57
2022-12-11T18:45:07.737Z,5.57
2022-12-11T18:47:34.332Z,4.57
2022-12-11T18:50:07.190Z,7.38
2022-12-11T18:52:34.739Z,9.25
2022-12-11T18:55:01.524Z,7.85
2022-12-11T18:57:28.186Z,9.15
2022-12-11T18:59:54.794Z,8.10
2022-12-11T19:02:22.135Z,7.65
2022-12-11T19:04:48.780Z,7.68
2022-12-11T19:07:15.393Z,6.30
2022-12-11T19:09:47.537Z,6.57
2022-12-11T19:12:14.550Z,6.20
2022-12-11T19:14:41.513Z,6.25
2022-12-11T19:17:08.126Z,6.05
2022-12-11T19:19:35.939Z,5.53
2022-12-11T19:22:02.748Z,6.10
2022-12-11T19:24:29.726Z,6.70
2022-12-11T19:26:56.303Z,6.90
2022-12-11T19:29:26.495Z,7.90
2022-12-11T19:31:55.106Z,7.57
2022-12-11T19:34:23.108Z,7.90
2022-12-11T19:36:49.765Z,11.55
2022-12-11T19:39:16.558Z,11.75
2022-12-11T19:41:43.727Z,10.32
2022-12-11T19:44:10.155Z,9.88
2022-12-11T19:46:36.824Z,10.07
2022-12-11T19:49:03.909Z,8.98
2022-12-11T19:51:38.529Z,8.60
2022-12-11T19:54:07.494Z,9.73
2022-12-11T19:56:34.538Z,8.48
2022-12-11T19:59:06.374Z,9.15
2022-12-11T20:01:34.915Z,9.80
2022-12-11T20:04:04.692Z,8.18
2022-12-11T20:06:33.230Z,6.70
2022-12-11T20:09:01.169Z,7.95
2022-12-11T20:11:27.829Z,7.10
2022-12-11T20:13:57.110Z,10.13
2022-12-11T20:16:45.890Z,9.90
2022-12-11T20:19:10.588Z,9.88
2022-12-11T20:21:37.072Z,8.35
2022-12-11T20:24:03.631Z,9.63
2022-12-11T20:26:32.427Z,9.20
2022-12-11T20:28:58.949Z,10.52
2022-12-11T20:31:27.362Z,8.93
2022-12-11T20:33:56.009Z,9.05
2022-12-11T20:36:24.821Z,9.02
2022-12-11T20:38:51.638Z,11.07
2022-12-11T20:41:22.451Z,7.60
2022-12-11T20:43:49.190Z,7.45
2022-12-11T20:46:17.149Z,7.95
2022-12-11T20:48:44.628Z,8.02
2022-12-11T20:51:13.080Z,7.28
2022-12-11T20:53:41.188Z,8.27
2022-12-11T20:56:19.113Z,12.63
2022-12-11T20:58:46.520Z,11.20
2022-12-11T21:01:18.072Z,9.80
2022-12-11T21:03:45.097Z,16.98
2022-12-11T21:06:25.313Z,15.02
2022-12-11T21:08:53.124Z,10.80
2022-12-11T21:11:19.752Z,11.48
2022-12-11T21:13:50.547Z,9.32
2022-12-11T21:16:17.932Z,8.95
2022-12-11T21:18:46.400Z,7.68
2022-12-11T21:21:13.789Z,10.02
2022-12-11T21:23:40.445Z,15.10
2022-12-11T21:26:07.028Z,11.43
2022-12-11T21:28:35.646Z,16.50
2022-12-11T21:31:06.796Z,11.88
2022-12-11T21:33:34.122Z,16.80
2022-12-11T21:36:01.476Z,15.80
2022-12-11T21:38:28.821Z,26.55
2022-12-11T21:40:56.083Z,23.05
2022-12-11T21:43:22.903Z,16.70
2022-12-11T21:46:01.170Z,11.02
2022-12-11T21:48:28.117Z,9.40
2022-12-11T21:50:54.726Z,7.13
2022-12-11T21:53:21.187Z,8.20
2022-12-11T21:55:47.610Z,8.57
2022-12-11T21:58:14.025Z,9.18
2022-12-11T22:00:40.459Z,9.93
2022-12-11T22:03:06.999Z,9.55
2022-12-11T22:05:33.456Z,8.07
2022-12-11T22:08:00.011Z,8.43
2022-12-11T22:10:28.204Z,8.35
2022-12-11T22:12:54.751Z,9.27
2022-12-11T22:15:21.277Z,9.63
2022-12-11T22:17:47.705Z,8.88
2022-12-11T22:20:14.547Z,7.13
2022-12-11T22:22:41.045Z,8.48
2022-12-11T22:25:07.871Z,8.57
2022-12-11T22:27:34.651Z,7.90
2022-12-11T22:30:01.079Z,6.65
2022-12-11T22:32:27.717Z,6.50
2022-12-11T22:34:56.207Z,6.43
2022-12-11T22:37:22.828Z,6.45
2022-12-11T22:39:49.783Z,6.13
2022-12-11T22:42:16.322Z,5.60
2022-12-11T22:44:42.794Z,6.20
2022-12-11T22:47:09.275Z,7.72
2022-12-11T22:49:35.861Z,7.18
2022-12-11T22:52:02.275Z,6.75
2022-12-11T22:54:28.757Z,6.10
2022-12-11T22:56:55.186Z,6.10
2022-12-11T22:59:21.653Z,6.88
2022-12-11T23:01:48.571Z,5.95
2022-12-11T23:04:14.993Z,6.47
2022-12-11T23:06:41.551Z,6.50
2022-12-11T23:09:08.106Z,5.78
2022-12-11T23:11:37.710Z,5.68
2022-12-11T23:14:05.759Z,6.20
2022-12-11T23:16:32.369Z,5.68
2022-12-11T23:18:59.033Z,5.35
2022-12-11T23:21:27.245Z,5.28
2022-12-11T23:23:54.635Z,4.82
2022-12-11T23:26:22.689Z,7.22
2022-12-11T23:28:49.458Z,5.95
2022-12-11T23:31:17.645Z,6.55
2022-12-11T23:33:44.745Z,4.80
2022-12-11T23:36:11.745Z,5.43
2022-12-11T23:38:39.569Z,5.80
2022-12-11T23:41:07.469Z,6.88
2022-12-11T23:43:35.533Z,6.80
2022-12-11T23:46:04.105Z,6.15
2022-12-11T23:48:31.229Z,5.65
2022-12-11T23:51:02.251Z,5.53
2022-12-11T23:53:28.883Z,6.50
2022-12-11T23:55:55.495Z,4.82
2022-12-11T23:58:22.041Z,4.72
